createdAt,value
2018-03-17T00:02:55.035Z,21.26
2018-03-17T00:08:45.714Z,18.13
2018-03-17T00:14:36.261Z,20.27
2018-03-17T00:20:26.935Z,24.49
2018-03-17T00:26:17.554Z,12.25
2018-03-17T00:32:08.204Z,10.2
2018-03-17T00:37:58.858Z,11.22
2018-03-17T00:43:49.448Z,10.14
2018-03-17T00:49:40.177Z,11.48
2018-03-17T00:55:30.740Z,12.24
2018-03-17T01:01:21.399Z,20.98
2018-03-17T01:07:12.008Z,15.31
2018-03-17T01:13:02.699Z,21.07
2018-03-17T01:18:53.322Z,20.15
2018-03-17T01:24:44.006Z,14.3
2018-03-17T01:30:34.604Z,20.06
2018-03-17T01:36:25.221Z,12.82
2018-03-17T01:42:15.859Z,14.09
2018-03-17T01:48:06.532Z,10.35
2018-03-17T01:53:57.122Z,9.5
2018-03-17T01:59:47.850Z,10
2018-03-17T02:05:38.428Z,9.65
2018-03-17T02:11:29.087Z,7.42
2018-03-17T02:17:19.717Z,11.01
2018-03-17T02:23:10.334Z,14.53
2018-03-17T02:29:00.994Z,11.9
2018-03-17T02:34:51.680Z,14.49
2018-03-17T02:40:42.263Z,16.06
2018-03-17T02:46:32.920Z,9.11
2018-03-17T02:52:23.582Z,5.14
2018-03-17T02:58:14.285Z,7.8
2018-03-17T03:04:04.912Z,4.89
2018-03-17T03:09:55.571Z,5.9
2018-03-17T03:15:46.150Z,8.95
2018-03-17T03:21:36.742Z,6.61
2018-03-17T03:27:27.452Z,9.34
2018-03-17T03:33:18.064Z,10.59
2018-03-17T03:39:08.736Z,13.31
2018-03-17T03:44:59.320Z,9.32
2018-03-17T03:50:49.944Z,11
2018-03-17T03:56:40.629Z,4.78
2018-03-17T04:02:31.276Z,9.49
2018-03-17T04:08:21.914Z,8.14
2018-03-17T04:14:12.528Z,8.18
2018-03-17T04:20:03.152Z,10.46
2018-03-17T04:25:53.800Z,12.9
2018-03-17T04:31:44.447Z,12.08
2018-03-17T04:37:35.148Z,10.31
2018-03-17T04:43:25.730Z,8.79
2018-03-17T04:49:16.470Z,10.88
2018-03-17T04:55:06.974Z,7.94
2018-03-17T05:00:57.611Z,11.59
2018-03-17T05:06:48.315Z,7.29
2018-03-17T05:12:38.902Z,12.81
2018-03-17T05:18:29.602Z,5.46
2018-03-17T05:24:20.201Z,5.8
2018-03-17T05:30:10.857Z,5.56
2018-03-17T05:36:01.466Z,4.62
2018-03-17T05:41:52.067Z,2.71
2018-03-17T05:47:42.766Z,2.88
2018-03-17T05:53:33.345Z,3.71
2018-03-17T05:59:24.007Z,3.8
2018-03-17T06:05:14.624Z,4.18
2018-03-17T06:11:05.216Z,3.48
2018-03-17T06:16:55.880Z,3.27
2018-03-17T06:22:46.514Z,9.19
2018-03-17T06:28:37.122Z,2.99
2018-03-17T06:34:27.779Z,5.1
2018-03-17T06:40:18.374Z,1.77
2018-03-17T06:46:09.007Z,4.55
2018-03-17T06:51:59.659Z,4.19
2018-03-17T06:57:50.250Z,1.35
2018-03-17T07:03:40.914Z,5.84
2018-03-17T07:09:31.554Z,2.45
2018-03-17T07:15:22.182Z,4.06
2018-03-17T07:21:12.855Z,3.81
2018-03-17T07:27:03.467Z,3.53
2018-03-17T07:32:54.058Z,4.32
2018-03-17T07:38:44.715Z,6.44
2018-03-17T07:44:35.362Z,6.98
2018-03-17T07:50:26.098Z,5.54
2018-03-17T07:56:16.717Z,7.37
2018-03-17T08:02:07.377Z,5.94
2018-03-17T08:07:57.977Z,7.69
2018-03-17T08:13:48.596Z,8.86
2018-03-17T08:19:39.231Z,6.56
2018-03-17T08:25:29.917Z,10.12
2018-03-17T08:31:20.571Z,11.87
2018-03-17T08:37:11.136Z,9.57
2018-03-17T08:43:01.819Z,10.49
2018-03-17T08:48:52.466Z,8.08
2018-03-17T08:54:43.144Z,7.25
2018-03-17T09:00:33.811Z,9.7
2018-03-17T09:06:24.471Z,7.51
2018-03-17T09:12:15.123Z,5.84
2018-03-17T09:18:05.829Z,5.43
2018-03-17T09:23:56.464Z,6.01
2018-03-17T09:29:47.068Z,8.79
2018-03-17T09:35:37.785Z,8.21
2018-03-17T09:41:28.399Z,3.24
2018-03-17T09:47:19.043Z,3.4
2018-03-17T09:53:09.708Z,2.44
2018-03-17T09:59:00.368Z,2.08
2018-03-17T10:04:51.016Z,1.63
2018-03-17T10:10:41.679Z,1.74
2018-03-17T10:16:32.338Z,1.06
2018-03-17T10:22:22.997Z,1.62
2018-03-17T10:28:13.655Z,1.47
2018-03-17T10:34:04.355Z,3.54
2018-03-17T10:39:55.000Z,1.22
2018-03-17T10:45:45.624Z,1.24
2018-03-17T10:51:36.295Z,3.51
2018-03-17T10:57:27.014Z,1.91
2018-03-17T11:03:17.611Z,2.44
2018-03-17T11:09:08.305Z,1.01
2018-03-17T11:14:58.951Z,0.65
2018-03-17T11:20:49.614Z,1.18
2018-03-17T11:26:40.347Z,0.7
2018-03-17T11:32:30.970Z,1.16
2018-03-17T11:38:21.604Z,0.55
2018-03-17T11:44:12.229Z,0.43
2018-03-17T11:50:02.920Z,0.77
2018-03-17T11:55:53.659Z,0.61
2018-03-17T12:01:44.322Z,0.4
2018-03-17T12:07:35.000Z,1.15
2018-03-17T12:13:25.642Z,1.79
2018-03-17T12:19:16.245Z,0.6
2018-03-17T12:25:07.003Z,1.92
2018-03-17T12:30:57.590Z,0.79
2018-03-17T12:36:48.276Z,1.16
2018-03-17T12:42:38.995Z,1.62
2018-03-17T12:48:29.693Z,2.14
2018-03-17T12:54:20.289Z,0.53
2018-03-17T13:00:10.967Z,2.22
2018-03-17T13:06:01.670Z,2.96
2018-03-17T13:11:52.311Z,1.28
2018-03-17T13:17:42.969Z,4.47
2018-03-17T13:23:33.622Z,7.69
2018-03-17T13:29:24.242Z,4.09
2018-03-17T13:35:14.893Z,2.36
2018-03-17T13:41:05.564Z,2.44
2018-03-17T13:46:56.143Z,1.96
2018-03-17T13:52:46.842Z,3.62
2018-03-17T13:58:37.506Z,2.36
2018-03-17T14:04:28.154Z,3.87
2018-03-17T14:10:18.922Z,4.65
2018-03-17T14:16:09.454Z,3.26
2018-03-17T14:22:00.119Z,4.3
2018-03-17T14:27:50.804Z,2.44
2018-03-17T14:33:41.468Z,4.94
2018-03-17T14:39:32.119Z,6.59
2018-03-17T14:45:22.843Z,2.37
2018-03-17T14:51:13.447Z,5.72
2018-03-17T14:57:04.223Z,6.71
2018-03-17T15:02:54.785Z,4.93
2018-03-17T15:08:45.464Z,5.02
2018-03-17T15:14:36.140Z,3.52
2018-03-17T15:20:26.760Z,8.58
2018-03-17T15:26:17.408Z,10.07
2018-03-17T15:32:08.083Z,9.68
2018-03-17T15:37:58.692Z,7.43
2018-03-17T15:43:49.365Z,5.68
2018-03-17T15:49:40.006Z,5.35
2018-03-17T15:55:30.642Z,10.08
2018-03-17T16:01:21.337Z,5.9
2018-03-17T16:07:11.935Z,4.55
2018-03-17T16:13:02.677Z,1.63
2018-03-17T16:18:53.272Z,1.95
2018-03-17T16:24:43.942Z,4.71
2018-03-17T16:30:34.518Z,4.86
2018-03-17T16:36:25.223Z,5.35
2018-03-17T16:42:15.876Z,6.62
2018-03-17T16:48:06.551Z,7.44
2018-03-17T16:53:57.176Z,2.7
2018-03-17T16:59:47.785Z,3.37
2018-03-17T17:05:38.419Z,2.64
2018-03-17T17:11:29.072Z,2.04
2018-03-17T17:17:19.759Z,1.8
2018-03-17T17:23:10.386Z,6.12
2018-03-17T17:29:01.054Z,6.89
2018-03-17T17:34:51.740Z,7.19
2018-03-17T17:40:42.333Z,5.16
2018-03-17T17:46:32.910Z,4.84
2018-03-17T17:52:23.635Z,7.3
2018-03-17T17:58:14.206Z,9.18
2018-03-17T18:04:04.854Z,9.63
2018-03-17T18:09:55.473Z,8.28
2018-03-17T18:15:46.129Z,8.69
2018-03-17T18:21:36.820Z,13.33
2018-03-17T18:27:27.407Z,9.12
2018-03-17T18:33:18.072Z,7.06
2018-03-17T18:39:08.704Z,9.58
2018-03-17T18:44:59.322Z,7.89
2018-03-17T18:50:49.947Z,10.77
2018-03-17T18:56:40.675Z,9.17
2018-03-17T19:02:31.237Z,6.91
2018-03-17T19:08:21.907Z,8.45
2018-03-17T19:14:12.540Z,9
2018-03-17T19:20:03.165Z,5.36
2018-03-17T19:25:53.833Z,7.65
2018-03-17T19:31:44.442Z,3.8
2018-03-17T19:37:35.094Z,3.64
2018-03-17T19:43:25.744Z,9.98
2018-03-17T19:49:16.385Z,6.28
2018-03-17T19:55:07.027Z,9.65
2018-03-17T20:00:57.706Z,5.18
2018-03-17T20:06:48.265Z,9.67
2018-03-17T20:12:38.949Z,11
2018-03-17T20:18:29.589Z,6.03
2018-03-17T20:24:20.224Z,12.76
2018-03-17T20:30:10.855Z,10.52
2018-03-17T20:36:01.537Z,10.18
2018-03-17T20:41:52.219Z,12.54
2018-03-17T20:47:42.765Z,10.39
2018-03-17T20:53:33.358Z,9.98
2018-03-17T20:59:24.016Z,6.77
2018-03-17T21:05:14.657Z,8.87
2018-03-17T21:11:05.354Z,8.03
2018-03-17T21:16:55.946Z,8.15
2018-03-17T21:22:46.614Z,8.46
2018-03-17T21:28:37.236Z,2.91
2018-03-17T21:34:27.859Z,5.62
2018-03-17T21:40:18.467Z,4.32
2018-03-17T21:46:09.127Z,5.25
2018-03-17T21:51:59.764Z,8.45
2018-03-17T21:57:50.444Z,11.18
2018-03-17T22:03:41.062Z,5.53
2018-03-17T22:09:31.676Z,10.1
2018-03-17T22:15:22.351Z,4.9
2018-03-17T22:21:12.910Z,5.2
2018-03-17T22:27:03.601Z,10.67
2018-03-17T22:32:54.212Z,7.91
2018-03-17T22:38:44.902Z,8.5
2018-03-17T22:44:35.511Z,6.16
2018-03-17T22:50:26.158Z,5.95
2018-03-17T22:56:16.700Z,8.1
2018-03-17T23:02:07.395Z,6.18
2018-03-17T23:07:57.979Z,5.69
2018-03-17T23:13:48.697Z,10.31
2018-03-17T23:19:39.218Z,7.93
2018-03-17T23:25:29.923Z,11.99
2018-03-17T23:31:20.532Z,12.02
2018-03-17T23:37:11.111Z,8.17
2018-03-17T23:43:01.778Z,4.43
2018-03-17T23:48:52.416Z,6.52
2018-03-17T23:54:43.085Z,4.87
